SLCO/CIJ METAR and TAF weather

Enter ICAO airport designator
Station Type Date Time Source
SLCO METAR 2020/07/06 17:00 UTC NOAA

SLCO 061700Z 00000KT 9999 BKN020 28/24 Q1014


Station Type Date Time Source
SLCO Decoded METAR 2020/07/06 17:00 UTC NOAA

Cobija, Bolivia (SLCO) 11-02S 068-47W 260M
Jul 06, 2020 - 01:00 PM EDT / 2020.07.06 1700 UTC
Wind: Calm:0
Visibility: greater than 7 mile(s):0
Sky conditions: mostly cloudy
Temperature: 82 F (28 C)
Dew Point: 75 F (24 C)
Relative Humidity: 78%
Pressure (altimeter): 29.94 in. Hg (1014 hPa)
ob: SLCO 061700Z 00000KT 9999 BKN020 28/24 Q1014
cycle: 17

Station Type Date Time Source
SLCO TAF 2020/07/06 18:48 UTC NOAA

TAF SLCO 061645Z 0618/0718 03006KT 9999 BKN020 TX32/0620Z TN20/0710Z
BECMG 0623/0701 00000KT NSC

Example: see airport list